Air Quality Table

TIMESTAMP NO2 SO2 O3 PM10 PM2.5 TEMP HUM AIRPRES WS WD NO
2022-12-08 13:00 13.71 µg/m3 0.1 µg/m3 73.05 µg/m3 30.09 µg/m3 8.31 µg/m3 19.8 °C 59.03 % 1,007.89 mbar 2.36 m/s 299.63 Deg 2.8 µg/m3
2022-12-08 12:00 17.41 µg/m3 0.18 µg/m3 66.48 µg/m3 45.61 µg/m3 10.89 µg/m3 19.33 °C 65.54 % 1,008.35 mbar 1.66 m/s 325.63 Deg 4.06 µg/m3
2022-12-08 11:00 20.04 µg/m3 0.2 µg/m3 58.75 µg/m3 59.1 µg/m3 14.54 µg/m3 18.36 °C 80.78 % 1,008.71 mbar 1.97 m/s 334.02 Deg 5.13 µg/m3
2022-12-08 10:00 26.37 µg/m3 0.27 µg/m3 49.06 µg/m3 61.24 µg/m3 17.85 µg/m3 17.52 °C 88.78 % 1,008.49 mbar 1.97 m/s 323.48 Deg 7.08 µg/m3
2022-12-08 09:00 38.13 µg/m3 0.33 µg/m3 26.44 µg/m3 48.97 µg/m3 10.59 µg/m3 15.92 °C 97.46 % 1,008.07 mbar 1.39 m/s 323.4 Deg 11.56 µg/m3
2022-12-08 08:00 49.52 µg/m3 0.32 µg/m3 17.03 µg/m3 40.6 µg/m3 10.03 µg/m3 14.25 °C 99.96 % 1,007.66 mbar 1.18 m/s 298.52 Deg 12.91 µg/m3
2022-12-08 07:00 37.41 µg/m3 0.16 µg/m3 26.78 µg/m3 32.18 µg/m3 14.09 µg/m3 14.11 °C 99.9 % 1,007.11 mbar 1.2 m/s 292.25 Deg 2.84 µg/m3
2022-12-08 06:00 18.69 µg/m3 0.16 µg/m3 43.25 µg/m3 38.31 µg/m3 8.45 µg/m3 14.26 °C 99.9 % 1,006.64 mbar 1.47 m/s 300.6 Deg 1.3 µg/m3
2022-12-08 05:00 12.92 µg/m3 0.16 µg/m3 49.62 µg/m3 64.42 µg/m3 10.06 µg/m3 14.53 °C 99.98 % 1,006.32 mbar 1.62 m/s 308.37 Deg 0.43 µg/m3
2022-12-08 04:00 14.61 µg/m3 0.25 µg/m3 46.31 µg/m3 74.4 µg/m3 11.78 µg/m3 14.99 °C 99.52 % 1,006.34 mbar 0.99 m/s 325.93 Deg 0.37 µg/m3
2022-12-08 03:00 12.92 µg/m3 0.16 µg/m3 50.07 µg/m3 93.8 µg/m3 16.25 µg/m3 15.3 °C 99.65 % 1,006.50 mbar 1.26 m/s 327.7 Deg 0.27 µg/m3
2022-12-08 02:00 21.95 µg/m3 0.18 µg/m3 37.37 µg/m3 133.71 µg/m3 18.6 µg/m3 15.23 °C 99.92 % 1,006.50 mbar 1.28 m/s 329.52 Deg 1.19 µg/m3
2022-12-08 01:00 27.55 µg/m3 0.19 µg/m3 22.37 µg/m3 190.19 µg/m3 25.11 µg/m3 15.3 °C 99.9 % 1,006.41 mbar 1.31 m/s 326.85 Deg 2.14 µg/m3
2022-12-08 00:00 33.89 µg/m3 0.21 µg/m3 10.32 µg/m3 222.76 µg/m3 31.92 µg/m3 15.56 °C 99.9 % 1,006.40 mbar 1.26 m/s 320.65 Deg 4.18 µg/m3
2022-12-07 23:00 39.96 µg/m3 0.24 µg/m3 6.69 µg/m3 223.67 µg/m3 26.79 µg/m3 15.85 °C 99.9 % 1,006.31 mbar 1.19 m/s 321.38 Deg 6.89 µg/m3
2022-12-07 22:00 45.56 µg/m3 0.29 µg/m3 4.33 µg/m3 223.18 µg/m3 31.92 µg/m3 15.92 °C 99.93 % 1,006.10 mbar 1.49 m/s 317.6 Deg 10.48 µg/m3
2022-12-07 21:00 55.57 µg/m3 0.48 µg/m3 1.95 µg/m3 218.7 µg/m3 26.72 µg/m3 16.27 °C 99.61 % 1,005.85 mbar 1.53 m/s 311.08 Deg 22.57 µg/m3
2022-12-07 20:00 64.28 µg/m3 0.57 µg/m3 1.82 µg/m3 205.69 µg/m3 26.94 µg/m3 16.82 °C 97.14 % 1,005.52 mbar 1.06 m/s 320.6 Deg 36.44 µg/m3
2022-12-07 19:00 63.32 µg/m3 0.32 µg/m3 6.42 µg/m3 180.64 µg/m3 24.92 µg/m3 17.24 °C 95.49 % 1,005.18 mbar 1.43 m/s 340.43 Deg 16.2 µg/m3
2022-12-07 18:00 36.48 µg/m3 0.22 µg/m3 32.83 µg/m3 150.73 µg/m3 23.75 µg/m3 17.52 °C 94.21 % 1,004.91 mbar 2 m/s 348.27 Deg 5.73 µg/m3
2022-12-07 17:00 28.4 µg/m3 0.15 µg/m3 42.88 µg/m3 138.11 µg/m3 29.6 µg/m3 17.99 °C 91.57 % 1,004.64 mbar 1.83 m/s 96.22 Deg 4.29 µg/m3
2022-12-07 16:00 22.48 µg/m3 0.1 µg/m3 48.12 µg/m3 110.5 µg/m3 17.37 µg/m3 18.73 °C 87.64 % 1,004.42 mbar 1.95 m/s 12.75 Deg 4.13 µg/m3
2022-12-07 15:00 18.69 µg/m3 0.11 µg/m3 48.66 µg/m3 94.38 µg/m3 12.14 µg/m3 19.55 °C 84.63 % 1,004.47 mbar 2.14 m/s 129.28 Deg 4.26 µg/m3
2022-12-07 14:00 17.4 µg/m3 0.13 µg/m3 57.88 µg/m3 79.25 µg/m3 12.97 µg/m3 20.01 °C 76.97 % 1,004.51 mbar 1.57 m/s 87.8 Deg 3.76 µg/m3
2022-12-07 13:00 16.27 µg/m3 0.15 µg/m3 56.15 µg/m3 92.89 µg/m3 9.94 µg/m3 20.5 °C 71.99 % 1,004.85 mbar 1.82 m/s 95.23 Deg 3.87 µg/m3
2022-12-07 12:00 32.65 µg/m3 0.31 µg/m3 37.66 µg/m3 78.11 µg/m3 13.92 µg/m3 21.22 °C 61.57 % 1,005.52 mbar 1.14 m/s 307.96 Deg 13 µg/m3
2022-12-07 11:00 38.24 µg/m3 0.38 µg/m3 30.52 µg/m3 61.97 µg/m3 15.76 µg/m3 20.25 °C 69.12 % 1,006.05 mbar 1.43 m/s 343.62 Deg 16.21 µg/m3
2022-12-07 10:00 45.17 µg/m3 0.45 µg/m3 22.28 µg/m3 63.12 µg/m3 21.74 µg/m3 19.17 °C 82.24 % 1,006.27 mbar 1.59 m/s 332.37 Deg 21.57 µg/m3
2022-12-07 09:00 59.1 µg/m3 0.61 µg/m3 9.24 µg/m3 45.64 µg/m3 11 µg/m3 17.92 °C 92.72 % 1,006.01 mbar 1.26 m/s 318.66 Deg 38.13 µg/m3
2022-12-07 08:00 57.84 µg/m3 0.56 µg/m3 5.64 µg/m3 44.21 µg/m3 6.16 µg/m3 17.02 °C 98.49 % 1,005.75 mbar 1.17 m/s 324.35 Deg 38.81 µg/m3
2022-12-07 07:00 41.81 µg/m3 0.2 µg/m3 17.04 µg/m3 45.6 µg/m3 6.92 µg/m3 17.52 °C 99.67 % 1,005.51 mbar 1.56 m/s 307.78 Deg 14.54 µg/m3
2022-12-07 06:00 18.49 µg/m3 0.1 µg/m3 40.93 µg/m3 39.09 µg/m3 6.6 µg/m3 17.96 °C 98.12 % 1,005.45 mbar 1.79 m/s 299.32 Deg 2.52 µg/m3
2022-12-07 05:00 7.01 µg/m3 0.04 µg/m3 53.54 µg/m3 23.59 µg/m3 6.7 µg/m3 17.88 °C 94.09 % 1,005.51 mbar 1.59 m/s 291.83 Deg 0.25 µg/m3
2022-12-07 04:00 3.79 µg/m3 0.18 µg/m3 59.78 µg/m3 25.6 µg/m3 7.05 µg/m3 17.62 °C 81.39 % 1,005.86 mbar 1.91 m/s 279.9 Deg 0.1 µg/m3
2022-12-07 03:00 2.07 µg/m3 -0.03 µg/m3 68.41 µg/m3 27.97 µg/m3 7.1 µg/m3 18.4 °C 68.81 % 1,005.83 mbar 2.25 m/s 280.44 Deg -0.06 µg/m3
2022-12-07 02:00 1.68 µg/m3 0.03 µg/m3 66.16 µg/m3 38.26 µg/m3 8.36 µg/m3 18.38 °C 82.12 % 1,006.47 mbar 2.67 m/s 289.4 Deg -0.05 µg/m3
2022-12-07 01:00 3.57 µg/m3 0.01 µg/m3 67.08 µg/m3 51.39 µg/m3 9.67 µg/m3 18.48 °C 91.59 % 1,006.88 mbar 1.34 m/s 260.12 Deg -0.04 µg/m3
2022-12-07 00:00 5.27 µg/m3 -0.01 µg/m3 66.27 µg/m3 47.83 µg/m3 9.2 µg/m3 17.69 °C 96.48 % 1,006.94 mbar 1.48 m/s 221.23 Deg -0 µg/m3
2022-12-06 23:00 5.77 µg/m3 0.03 µg/m3 75.91 µg/m3 46.55 µg/m3 9.25 µg/m3 17.98 °C 92.13 % 1,007.22 mbar 1.62 m/s 200.63 Deg -0.04 µg/m3
2022-12-06 22:00 4.67 µg/m3 -0.01 µg/m3 76.44 µg/m3 55.16 µg/m3 12.96 µg/m3 18.09 °C 88.78 % 1,007.22 mbar 0.94 m/s 197.9 Deg -0.02 µg/m3
2022-12-06 21:00 3.76 µg/m3 0.02 µg/m3 77.6 µg/m3 52.3 µg/m3 8.09 µg/m3 18.15 °C 88.04 % 1,007.20 mbar 1.93 m/s 218.97 Deg -0.01 µg/m3
2022-12-06 20:00 6.27 µg/m3 0.01 µg/m3 69.77 µg/m3 55.96 µg/m3 8.4 µg/m3 18.26 °C 96.74 % 1,007.63 mbar 2.42 m/s 196 Deg 0.47 µg/m3
2022-12-06 19:00 8.63 µg/m3 0.02 µg/m3 65.12 µg/m3 54.21 µg/m3 12.35 µg/m3 18.33 °C 97.01 % 1,007.86 mbar 2.21 m/s 195.1 Deg 0.05 µg/m3
2022-12-06 18:00 10.8 µg/m3 0.02 µg/m3 68.56 µg/m3 52 µg/m3 9.42 µg/m3 18.37 °C 96.55 % 1,007.86 mbar 2.86 m/s 196.75 Deg 0.18 µg/m3
2022-12-06 17:00 11.24 µg/m3 0.04 µg/m3 72.76 µg/m3 56.64 µg/m3 6.33 µg/m3 18.54 °C 92.7 % 1,008.01 mbar 3.5 m/s 192.05 Deg 0.42 µg/m3
2022-12-06 16:00 8.98 µg/m3 0.05 µg/m3 76.01 µg/m3 30.81 µg/m3 7.54 µg/m3 19 °C 88.48 % 1,008.21 mbar 3.66 m/s 193.33 Deg 0.41 µg/m3
2022-12-06 15:00 4.86 µg/m3 0.04 µg/m3 81.71 µg/m3 21.37 µg/m3 7.81 µg/m3 18.96 °C 88.15 % 1,008.63 mbar 4.04 m/s 198.93 Deg 0.29 µg/m3

It is to be noted that the data is provisional and subject to quality assurance procedures. For validated data kindly refer your request to contact.air@era.org.mt